createdAt,value
2023-04-12T00:02:22.747Z,3.99
2023-04-12T00:04:55.349Z,4.04
2023-04-12T00:07:23.190Z,4.09
2023-04-12T00:09:50.863Z,3.99
2023-04-12T00:12:20.731Z,3.99
2023-04-12T00:14:48.571Z,3.93
2023-04-12T00:17:16.052Z,3.97
2023-04-12T00:19:44.778Z,3.96
2023-04-12T00:22:12.997Z,3.98
2023-04-12T00:24:40.810Z,3.89
2023-04-12T00:27:08.588Z,4.07
2023-04-12T00:29:41.143Z,4.13
2023-04-12T00:32:10.097Z,4.13
2023-04-12T00:34:37.640Z,4.13
2023-04-12T00:37:05.186Z,4.20
2023-04-12T00:39:32.677Z,4.25
2023-04-12T00:42:04.398Z,4.01
2023-04-12T00:44:32.952Z,3.74
2023-04-12T00:47:02.701Z,3.79
2023-04-12T00:49:30.789Z,3.95
2023-04-12T00:52:03.175Z,4.10
2023-04-12T00:54:32.256Z,4.13
2023-04-12T00:57:00.236Z,4.19
2023-04-12T00:59:27.788Z,4.15
2023-04-12T01:01:56.150Z,4.07
2023-04-12T01:04:26.418Z,4.34
2023-04-12T01:07:10.137Z,4.15
2023-04-12T01:09:46.615Z,4.19
2023-04-12T01:12:27.099Z,4.22
2023-04-12T01:15:06.432Z,4.12
2023-04-12T01:17:38.179Z,4.10
2023-04-12T01:20:14.320Z,3.96
2023-04-12T01:23:10.446Z,4.05
2023-04-12T01:25:51.107Z,3.99
2023-04-12T01:28:22.055Z,3.99
2023-04-12T01:30:51.473Z,4.18
2023-04-12T01:33:23.193Z,4.10
2023-04-12T01:35:50.986Z,4.04
2023-04-12T01:38:18.709Z,3.91
2023-04-12T01:40:46.252Z,4.10
2023-04-12T01:43:15.880Z,4.20
2023-04-12T01:45:44.868Z,4.08
2023-04-12T01:48:13.333Z,4.15
2023-04-12T01:50:45.936Z,4.26
2023-04-12T01:53:15.210Z,4.22
2023-04-12T01:55:45.819Z,4.12
2023-04-12T01:58:13.719Z,4.07
2023-04-12T02:00:44.828Z,4.05
2023-04-12T02:03:13.796Z,4.03
2023-04-12T02:05:41.588Z,4.06
2023-04-12T02:08:09.164Z,4.05
2023-04-12T02:10:39.748Z,3.89
2023-04-12T02:13:07.614Z,3.90
2023-04-12T02:15:37.123Z,3.98
2023-04-12T02:18:06.055Z,3.94
2023-04-12T02:20:35.538Z,3.86
2023-04-12T02:23:03.089Z,4.01
2023-04-12T02:25:30.921Z,3.97
2023-04-12T02:27:58.450Z,3.93
2023-04-12T02:30:26.002Z,3.98
2023-04-12T02:32:56.188Z,4.05
2023-04-12T02:35:29.029Z,3.96
2023-04-12T02:38:03.631Z,3.93
2023-04-12T02:40:31.189Z,3.83
2023-04-12T02:42:59.320Z,3.86
2023-04-12T02:45:27.893Z,3.98
2023-04-12T02:47:56.639Z,4.11
2023-04-12T02:50:30.410Z,4.07
2023-04-12T02:53:10.408Z,4.22
2023-04-12T02:55:40.413Z,4.36
2023-04-12T02:58:10.064Z,4.27
2023-04-12T03:00:45.768Z,4.25
2023-04-12T03:03:17.894Z,4.15
2023-04-12T03:05:48.641Z,4.18
2023-04-12T03:08:18.128Z,4.18
2023-04-12T03:10:52.778Z,4.27
2023-04-12T03:13:21.106Z,4.35
2023-04-12T03:15:56.643Z,4.43
2023-04-12T03:18:27.940Z,4.29
2023-04-12T03:20:57.035Z,4.26
2023-04-12T03:23:25.068Z,4.29
2023-04-12T03:26:04.915Z,4.36
2023-04-12T03:28:35.883Z,4.40
2023-04-12T03:31:06.403Z,4.32
2023-04-12T03:33:42.714Z,4.34
2023-04-12T03:36:22.176Z,4.17
2023-04-12T03:38:55.361Z,4.22
2023-04-12T03:41:23.369Z,4.21
2023-04-12T03:43:50.967Z,4.11
2023-04-12T03:46:19.726Z,4.24
2023-04-12T03:48:54.549Z,4.19
2023-04-12T03:51:27.104Z,4.10
2023-04-12T03:54:02.705Z,4.12
2023-04-12T03:56:35.600Z,4.19
2023-04-12T03:59:07.754Z,4.13
2023-04-12T04:01:36.931Z,4.17
2023-04-12T04:04:06.585Z,3.92
2023-04-12T04:06:35.593Z,3.82
2023-04-12T04:09:03.661Z,3.89
2023-04-12T04:11:36.052Z,3.99
2023-04-12T04:14:07.457Z,4.15
2023-04-12T04:16:35.883Z,4.17
2023-04-12T04:19:15.641Z,4.22
2023-04-12T04:21:47.508Z,4.29
2023-04-12T04:24:15.279Z,4.43
2023-04-12T04:26:47.204Z,4.41
2023-04-12T04:29:23.595Z,4.40
2023-04-12T04:31:51.393Z,4.43
2023-04-12T04:34:19.447Z,4.47
2023-04-12T04:36:50.044Z,4.41
2023-04-12T04:39:24.410Z,4.34
2023-04-12T04:41:54.778Z,4.43
2023-04-12T04:44:38.297Z,4.47
2023-04-12T04:47:08.579Z,4.67
2023-04-12T04:49:36.974Z,4.59
2023-04-12T04:52:13.157Z,4.66
2023-04-12T04:54:41.567Z,4.45
2023-04-12T04:57:11.630Z,4.51
2023-04-12T04:59:40.920Z,4.52
2023-04-12T05:02:18.525Z,4.51
2023-04-12T05:04:46.272Z,4.63
2023-04-12T05:07:18.840Z,4.67
2023-04-12T05:09:48.676Z,4.70
2023-04-12T05:12:17.551Z,4.78
2023-04-12T05:14:51.841Z,4.77
2023-04-12T05:17:19.776Z,4.73
2023-04-12T05:19:47.698Z,4.77
2023-04-12T05:22:22.568Z,4.71
2023-04-12T05:24:51.591Z,4.62
2023-04-12T05:27:19.127Z,4.54
2023-04-12T05:29:48.601Z,4.56
2023-04-12T05:32:19.105Z,4.60
2023-04-12T05:34:47.705Z,4.65
2023-04-12T05:37:15.407Z,4.57
2023-04-12T05:39:43.651Z,4.60
2023-04-12T05:42:12.508Z,4.55
2023-04-12T05:44:40.438Z,4.50
2023-04-12T05:47:12.207Z,4.51
2023-04-12T05:49:39.913Z,4.53
2023-04-12T05:52:10.476Z,4.60
2023-04-12T05:54:38.114Z,4.64
2023-04-12T05:57:07.320Z,4.64
2023-04-12T05:59:36.337Z,4.67
2023-04-12T06:02:03.982Z,4.70
2023-04-12T06:04:48.857Z,4.75
2023-04-12T06:07:19.213Z,4.84
2023-04-12T06:09:47.361Z,4.87
2023-04-12T06:12:14.981Z,4.90
2023-04-12T06:14:43.855Z,4.94
2023-04-12T06:17:11.679Z,4.98
2023-04-12T06:19:40.897Z,5.08
2023-04-12T06:22:08.426Z,5.16
2023-04-12T06:24:36.774Z,5.14
2023-04-12T06:27:04.488Z,5.19
2023-04-12T06:29:32.991Z,5.24
2023-04-12T06:32:01.899Z,5.22
2023-04-12T06:34:29.866Z,5.25
2023-04-12T06:37:02.028Z,5.30
2023-04-12T06:39:29.513Z,5.36
2023-04-12T06:41:57.592Z,5.43
2023-04-12T06:44:26.274Z,5.49
2023-04-12T06:46:53.851Z,5.57
2023-04-12T06:49:22.929Z,5.61
2023-04-12T06:51:50.367Z,5.69
2023-04-12T06:54:17.964Z,5.71
2023-04-12T06:56:45.474Z,5.74
2023-04-12T06:59:12.990Z,5.85
2023-04-12T07:01:41.934Z,5.97
2023-04-12T07:04:10.902Z,6.06
2023-04-12T07:06:40.060Z,6.16
2023-04-12T07:09:07.541Z,6.34
2023-04-12T07:11:35.529Z,6.46
2023-04-12T07:14:03.072Z,6.57
2023-04-12T07:16:31.075Z,6.65
2023-04-12T07:18:58.958Z,6.75
2023-04-12T07:21:27.559Z,6.80
2023-04-12T07:23:56.716Z,6.86
2023-04-12T07:26:24.300Z,6.97
2023-04-12T07:28:51.814Z,7.05
2023-04-12T07:31:19.458Z,7.06
2023-04-12T07:33:47.031Z,7.08
2023-04-12T07:36:16.621Z,7.10
2023-04-12T07:38:44.256Z,7.17
2023-04-12T07:41:13.169Z,7.22
2023-04-12T07:43:40.674Z,7.25
2023-04-12T07:46:08.844Z,7.32
2023-04-12T07:48:36.646Z,7.39
2023-04-12T07:51:04.641Z,7.48
2023-04-12T07:53:32.232Z,7.58
2023-04-12T07:55:59.762Z,7.64
2023-04-12T07:58:28.661Z,7.74
2023-04-12T08:00:59.185Z,7.86
2023-04-12T08:03:28.215Z,7.90
2023-04-12T08:05:55.811Z,7.90
2023-04-12T08:08:23.768Z,7.92
2023-04-12T08:10:52.515Z,7.97
2023-04-12T08:13:20.724Z,8.01
2023-04-12T08:15:51.540Z,8.15
2023-04-12T08:18:19.307Z,8.24
2023-04-12T08:20:49.123Z,8.34
2023-04-12T08:23:16.801Z,8.40
2023-04-12T08:25:44.300Z,8.41
2023-04-12T08:28:12.337Z,8.37
2023-04-12T08:30:39.900Z,8.45
2023-04-12T08:33:08.721Z,8.50
2023-04-12T08:35:36.256Z,8.57
2023-04-12T08:38:07.629Z,8.58
2023-04-12T08:40:35.215Z,8.62
2023-04-12T08:43:04.425Z,8.64
2023-04-12T08:45:33.183Z,8.66
2023-04-12T08:48:01.544Z,8.64
2023-04-12T08:50:30.607Z,8.67
2023-04-12T08:52:59.454Z,8.79
2023-04-12T08:55:27.143Z,8.76
2023-04-12T08:57:55.992Z,8.67
2023-04-12T09:00:23.676Z,8.65
2023-04-12T09:02:51.650Z,8.82
2023-04-12T09:05:19.387Z,8.83
2023-04-12T09:07:48.322Z,8.92
2023-04-12T09:10:31.282Z,8.80
2023-04-12T09:12:58.832Z,8.83
2023-04-12T09:15:26.345Z,8.82
2023-04-12T09:18:04.792Z,8.73
2023-04-12T09:20:32.493Z,8.80
2023-04-12T09:23:02.863Z,8.80
2023-04-12T09:25:44.673Z,8.92
2023-04-12T09:28:24.200Z,9.02
2023-04-12T09:30:52.934Z,8.94
2023-04-12T09:33:21.390Z,8.99
2023-04-12T09:35:49.335Z,9.12
2023-04-12T09:38:18.223Z,9.15
2023-04-12T09:40:45.922Z,9.16
2023-04-12T09:43:13.450Z,9.17
2023-04-12T09:45:41.085Z,9.35
2023-04-12T09:48:08.983Z,9.35
2023-04-12T09:50:36.680Z,9.33
2023-04-12T09:53:06.198Z,9.37
2023-04-12T09:55:35.120Z,9.39
2023-04-12T09:58:04.976Z,9.42
2023-04-12T10:00:34.360Z,9.30
2023-04-12T10:03:03.014Z,9.27
2023-04-12T10:05:31.096Z,9.17
2023-04-12T10:08:01.541Z,9.25
2023-04-12T10:10:31.718Z,9.15
2023-04-12T10:13:02.166Z,9.24
2023-04-12T10:15:30.449Z,9.15
2023-04-12T10:18:03.632Z,9.20
2023-04-12T10:20:31.495Z,9.27
2023-04-12T10:23:02.112Z,9.20
2023-04-12T10:25:31.588Z,9.11
2023-04-12T10:28:14.524Z,8.90
2023-04-12T10:30:42.231Z,8.90
2023-04-12T10:33:14.600Z,8.74
2023-04-12T10:35:51.786Z,8.67
2023-04-12T10:38:19.837Z,8.61
2023-04-12T10:41:13.582Z,8.58
2023-04-12T10:43:43.395Z,8.50
2023-04-12T10:46:44.379Z,8.48
2023-04-12T10:49:12.529Z,8.51
2023-04-12T10:51:40.578Z,8.48
2023-04-12T10:54:35.150Z,8.27
2023-04-12T10:57:04.039Z,8.16
2023-04-12T10:59:57.479Z,8.22
2023-04-12T11:02:25.376Z,8.07
2023-04-12T11:05:10.014Z,8.01
2023-04-12T11:07:56.234Z,7.92
2023-04-12T11:10:42.402Z,7.91
2023-04-12T11:13:17.097Z,7.90
2023-04-12T11:15:46.006Z,7.94
2023-04-12T11:18:13.614Z,7.88
2023-04-12T11:20:41.385Z,7.88
2023-04-12T11:23:11.296Z,7.77
2023-04-12T11:25:39.092Z,7.76
2023-04-12T11:28:17.296Z,7.81
2023-04-12T11:30:54.617Z,7.77
2023-04-12T11:33:35.324Z,7.83
2023-04-12T11:36:05.753Z,7.83
2023-04-12T11:38:33.532Z,7.84
2023-04-12T11:41:01.050Z,7.86
2023-04-12T11:43:28.714Z,7.93
2023-04-12T11:46:00.830Z,7.92
2023-04-12T11:48:28.771Z,7.96
2023-04-12T11:51:07.665Z,8.03
2023-04-12T11:53:38.130Z,8.08
2023-04-12T11:56:06.145Z,8.11
2023-04-12T11:58:33.908Z,8.07
2023-04-12T12:01:03.005Z,8.09
2023-04-12T12:03:31.070Z,8.14
2023-04-12T12:05:59.568Z,8.19
2023-04-12T12:08:27.370Z,8.25
2023-04-12T12:11:06.988Z,8.27
2023-04-12T12:13:45.697Z,8.38
2023-04-12T12:16:14.729Z,8.46
2023-04-12T12:18:42.320Z,8.46
2023-04-12T12:21:10.851Z,8.45
2023-04-12T12:23:38.976Z,8.58
2023-04-12T12:26:18.612Z,8.63
2023-04-12T12:28:50.760Z,8.60
2023-04-12T12:31:21.937Z,8.51
2023-04-12T12:33:52.402Z,8.57
2023-04-12T12:36:20.868Z,8.58
2023-04-12T12:38:49.174Z,8.63
2023-04-12T12:41:18.133Z,8.72
2023-04-12T12:43:46.932Z,8.82
2023-04-12T12:46:14.770Z,8.83
2023-04-12T12:48:43.936Z,8.89
2023-04-12T12:51:12.169Z,8.87
2023-04-12T12:53:40.742Z,8.92
2023-04-12T12:56:10.090Z,8.84
2023-04-12T12:58:40.709Z,8.75
2023-04-12T13:01:08.796Z,8.75
2023-04-12T13:03:36.682Z,8.72
2023-04-12T13:06:06.081Z,8.71
2023-04-12T13:08:36.555Z,8.74
2023-04-12T13:11:04.085Z,8.79
2023-04-12T13:13:31.750Z,8.81
2023-04-12T13:15:59.326Z,8.89
2023-04-12T13:18:27.710Z,9.02
2023-04-12T13:20:55.261Z,9.13
2023-04-12T13:23:24.077Z,9.29
2023-04-12T13:25:53.037Z,9.44
2023-04-12T13:28:20.889Z,9.44
2023-04-12T13:30:49.310Z,9.37
2023-04-12T13:33:20.103Z,9.38
2023-04-12T13:35:49.172Z,9.35
2023-04-12T13:38:16.651Z,9.33
2023-04-12T13:40:45.479Z,9.28
2023-04-12T13:43:13.046Z,9.24
2023-04-12T13:45:40.688Z,9.23
2023-04-12T13:48:08.331Z,9.26
2023-04-12T13:50:36.096Z,9.29
2023-04-12T13:53:03.589Z,9.37
2023-04-12T13:55:31.087Z,9.41
2023-04-12T13:57:59.987Z,9.43
2023-04-12T14:00:27.656Z,9.49
2023-04-12T14:02:55.598Z,9.50
2023-04-12T14:05:23.298Z,9.51
2023-04-12T14:07:52.462Z,9.54
2023-04-12T14:10:19.925Z,9.48
2023-04-12T14:12:47.429Z,9.38
2023-04-12T14:15:16.432Z,9.37
2023-04-12T14:17:43.980Z,9.39
2023-04-12T14:20:12.573Z,9.38
2023-04-12T14:22:40.096Z,9.37
2023-04-12T14:25:09.319Z,9.33
2023-04-12T14:27:36.973Z,9.33
2023-04-12T14:30:06.219Z,9.30
2023-04-12T14:32:35.468Z,9.30
2023-04-12T14:35:04.187Z,9.26
2023-04-12T14:37:32.796Z,9.24
2023-04-12T14:40:00.334Z,9.26
2023-04-12T14:42:27.867Z,9.28
2023-04-12T14:44:55.370Z,9.26
2023-04-12T14:47:22.885Z,9.29
2023-04-12T14:49:51.778Z,9.29
2023-04-12T14:52:19.634Z,9.30
2023-04-12T14:54:47.171Z,9.33
2023-04-12T14:57:14.914Z,9.35
2023-04-12T14:59:42.521Z,9.37
2023-04-12T15:02:10.171Z,9.35
2023-04-12T15:04:38.141Z,9.37
2023-04-12T15:07:07.024Z,9.40
2023-04-12T15:09:34.959Z,9.44
2023-04-12T15:12:02.521Z,9.46
2023-04-12T15:14:30.050Z,9.51
2023-04-12T15:16:57.755Z,9.55
2023-04-12T15:19:25.616Z,9.62
2023-04-12T15:21:55.035Z,9.68
2023-04-12T15:24:24.443Z,9.55
2023-04-12T15:26:55.375Z,9.53
2023-04-12T15:29:24.257Z,9.55
2023-04-12T15:31:51.809Z,9.56
2023-04-12T15:34:19.518Z,9.53
2023-04-12T15:36:47.118Z,9.46
2023-04-12T15:39:14.960Z,9.44
2023-04-12T15:41:43.966Z,9.50
2023-04-12T15:44:13.433Z,9.52
2023-04-12T15:46:42.033Z,9.53
2023-04-12T15:49:10.163Z,9.48
2023-04-12T15:51:38.428Z,9.49
2023-04-12T15:54:06.755Z,9.45
2023-04-12T15:56:35.384Z,9.43
2023-04-12T15:59:04.467Z,9.38
2023-04-12T16:01:32.065Z,9.31
2023-04-12T16:04:00.017Z,9.33
2023-04-12T16:06:30.280Z,9.35
2023-04-12T16:08:58.179Z,9.34
2023-04-12T16:11:26.430Z,9.38
2023-04-12T16:13:54.942Z,9.42
2023-04-12T16:16:24.480Z,9.39
2023-04-12T16:18:53.079Z,9.37
2023-04-12T16:21:22.209Z,9.39
2023-04-12T16:23:51.135Z,9.41
2023-04-12T16:26:21.465Z,9.41
2023-04-12T16:28:49.262Z,9.44
2023-04-12T16:31:16.893Z,9.44
2023-04-12T16:33:45.876Z,9.44
2023-04-12T16:36:13.731Z,9.42
2023-04-12T16:38:41.247Z,9.35
2023-04-12T16:41:08.756Z,9.29
2023-04-12T16:43:36.356Z,9.28
2023-04-12T16:46:05.912Z,9.29
2023-04-12T16:48:33.823Z,9.30
2023-04-12T16:51:04.721Z,9.29
2023-04-12T16:53:32.285Z,9.28
2023-04-12T16:56:02.651Z,9.25
2023-04-12T16:58:31.397Z,9.25
2023-04-12T17:00:58.876Z,9.27
2023-04-12T17:03:26.587Z,9.30
2023-04-12T17:05:54.326Z,9.26
2023-04-12T17:08:23.147Z,9.27
2023-04-12T17:10:50.856Z,9.23
2023-04-12T17:13:20.404Z,9.24
2023-04-12T17:15:48.718Z,9.22
2023-04-12T17:18:16.436Z,9.24
2023-04-12T17:20:44.199Z,9.25
2023-04-12T17:23:12.353Z,9.25
2023-04-12T17:25:41.658Z,9.28
2023-04-12T17:28:09.478Z,9.28
2023-04-12T17:30:37.247Z,9.28
2023-04-12T17:33:07.277Z,9.29
2023-04-12T17:35:34.910Z,9.28
2023-04-12T17:38:02.426Z,9.27
2023-04-12T17:40:31.254Z,9.26
2023-04-12T17:43:00.263Z,9.28
2023-04-12T17:45:28.591Z,9.26
2023-04-12T17:47:56.269Z,9.25
2023-04-12T17:50:24.102Z,9.24
2023-04-12T17:52:51.728Z,9.25
2023-04-12T17:55:23.426Z,9.30
2023-04-12T17:57:51.086Z,9.26
2023-04-12T18:00:21.774Z,9.25
2023-04-12T18:02:50.090Z,9.31
2023-04-12T18:05:17.773Z,9.28
2023-04-12T18:07:45.276Z,9.29
2023-04-12T18:10:17.782Z,9.31
2023-04-12T18:12:46.472Z,9.31
2023-04-12T18:15:14.045Z,9.31
2023-04-12T18:17:43.013Z,9.29
2023-04-12T18:20:11.998Z,9.28
2023-04-12T18:22:39.665Z,9.31
2023-04-12T18:25:08.060Z,9.31
2023-04-12T18:27:35.646Z,9.33
2023-04-12T18:30:03.442Z,9.36
2023-04-12T18:32:35.140Z,9.35
2023-04-12T18:35:04.923Z,9.34
2023-04-12T18:37:32.502Z,9.30
2023-04-12T18:40:00.421Z,9.29
2023-04-12T18:42:27.962Z,9.32
2023-04-12T18:44:56.552Z,9.38
2023-04-12T18:47:24.216Z,9.45
2023-04-12T18:49:51.698Z,9.46
2023-04-12T18:52:20.638Z,9.44
2023-04-12T18:54:48.402Z,9.38
2023-04-12T18:57:18.505Z,9.32
2023-04-12T18:59:47.857Z,9.33
2023-04-12T19:02:16.006Z,9.41
2023-04-12T19:04:43.549Z,9.52
2023-04-12T19:07:11.298Z,9.39
2023-04-12T19:09:40.440Z,9.37
2023-04-12T19:12:08.404Z,9.33
2023-04-12T19:14:36.127Z,9.30
2023-04-12T19:17:04.106Z,9.34
2023-04-12T19:19:31.738Z,9.45
2023-04-12T19:21:59.196Z,9.39
2023-04-12T19:24:26.686Z,9.36
2023-04-12T19:26:56.062Z,9.44
2023-04-12T19:29:24.294Z,9.48
2023-04-12T19:31:53.675Z,9.53
2023-04-12T19:34:21.421Z,9.60
2023-04-12T19:36:49.581Z,9.55
2023-04-12T19:39:18.523Z,9.47
2023-04-12T19:41:48.489Z,9.44
2023-04-12T19:44:17.295Z,9.34
2023-04-12T19:46:44.888Z,9.29
2023-04-12T19:49:13.341Z,9.30
2023-04-12T19:51:40.883Z,9.29
2023-04-12T19:54:09.936Z,9.29
2023-04-12T19:56:37.698Z,9.23
2023-04-12T19:59:06.786Z,9.34
2023-04-12T20:01:43.083Z,9.18
2023-04-12T20:04:10.754Z,9.15
2023-04-12T20:06:38.705Z,9.23
2023-04-12T20:09:06.182Z,9.16
2023-04-12T20:11:33.731Z,9.05
2023-04-12T20:14:01.225Z,9.08
2023-04-12T20:16:28.925Z,8.96
2023-04-12T20:18:59.016Z,8.99
2023-04-12T20:21:27.838Z,8.92
2023-04-12T20:23:55.315Z,8.92
2023-04-12T20:26:23.008Z,9.03
2023-04-12T20:28:50.815Z,8.91
2023-04-12T20:31:19.411Z,8.80
2023-04-12T20:33:47.014Z,8.77
2023-04-12T20:36:15.898Z,8.84
2023-04-12T20:38:43.616Z,8.72
2023-04-12T20:41:11.609Z,8.69
2023-04-12T20:43:43.585Z,8.67
2023-04-12T20:46:15.546Z,8.63
2023-04-12T20:48:43.326Z,8.61
2023-04-12T20:51:13.624Z,8.61
2023-04-12T20:53:43.621Z,8.60
2023-04-12T20:56:11.086Z,8.61
2023-04-12T20:58:38.798Z,8.56
2023-04-12T21:01:07.340Z,8.55
2023-04-12T21:03:36.501Z,8.55
2023-04-12T21:06:06.749Z,8.53
2023-04-12T21:08:34.495Z,8.56
2023-04-12T21:11:03.639Z,8.59
2023-04-12T21:13:31.534Z,8.62
2023-04-12T21:16:01.173Z,8.60
2023-04-12T21:18:28.840Z,8.71
2023-04-12T21:20:59.530Z,8.64
2023-04-12T21:23:27.866Z,8.52
2023-04-12T21:25:56.071Z,8.48
2023-04-12T21:28:24.953Z,8.44
2023-04-12T21:30:55.048Z,8.45
2023-04-12T21:33:25.053Z,8.52
2023-04-12T21:35:54.369Z,8.42
2023-04-12T21:38:22.372Z,8.47
2023-04-12T21:40:49.975Z,8.43
2023-04-12T21:43:17.554Z,8.37
2023-04-12T21:45:46.628Z,8.46
2023-04-12T21:48:14.654Z,8.36
2023-04-12T21:50:42.428Z,8.30
2023-04-12T21:53:10.017Z,8.33
2023-04-12T21:55:37.701Z,8.36
2023-04-12T21:58:05.270Z,8.38
2023-04-12T22:00:33.021Z,8.39
2023-04-12T22:03:02.123Z,8.39
2023-04-12T22:05:30.227Z,8.39
2023-04-12T22:07:57.787Z,8.42
2023-04-12T22:10:25.682Z,8.50
2023-04-12T22:12:53.965Z,8.42
2023-04-12T22:15:21.712Z,8.31
2023-04-12T22:17:49.316Z,8.27
2023-04-12T22:20:18.316Z,8.33
2023-04-12T22:22:45.852Z,8.32
2023-04-12T22:25:15.309Z,8.42
2023-04-12T22:27:46.642Z,8.37
2023-04-12T22:30:14.658Z,8.35
2023-04-12T22:32:42.412Z,8.38
2023-04-12T22:35:10.685Z,8.36
2023-04-12T22:37:41.082Z,8.26
2023-04-12T22:40:12.214Z,8.24
2023-04-12T22:42:45.924Z,8.18
2023-04-12T22:45:13.877Z,8.19
2023-04-12T22:47:42.530Z,8.26
2023-04-12T22:50:11.105Z,8.23
2023-04-12T22:52:40.355Z,8.17
2023-04-12T22:55:09.319Z,8.23
2023-04-12T22:57:37.097Z,8.18
2023-04-12T23:00:06.260Z,8.16
2023-04-12T23:02:34.788Z,8.08
2023-04-12T23:05:02.892Z,8.05
2023-04-12T23:07:31.267Z,8.01
2023-04-12T23:10:01.982Z,8.00
2023-04-12T23:12:30.414Z,7.98
2023-04-12T23:14:57.969Z,8.04
2023-04-12T23:17:26.794Z,8.05
2023-04-12T23:19:54.418Z,8.03
2023-04-12T23:22:48.428Z,8.16
2023-04-12T23:25:38.866Z,8.00
2023-04-12T23:28:13.397Z,7.98
2023-04-12T23:30:44.033Z,7.96
2023-04-12T23:33:11.957Z,8.04
2023-04-12T23:35:40.081Z,8.03
2023-04-12T23:38:08.447Z,8.05
2023-04-12T23:40:37.293Z,8.07
2023-04-12T23:43:04.811Z,8.05
2023-04-12T23:45:32.323Z,7.88
2023-04-12T23:48:00.025Z,7.94
2023-04-12T23:50:27.821Z,7.91
2023-04-12T23:52:55.284Z,7.94
2023-04-12T23:55:22.786Z,7.98
2023-04-12T23:57:51.825Z,7.95
